createdAt,value
2023-02-19T00:01:23.485Z,99906.31
2023-02-19T00:06:26.718Z,99898.28
2023-02-19T00:11:29.920Z,99903.25
2023-02-19T00:16:32.968Z,99897.59
2023-02-19T00:21:34.381Z,99892.50
2023-02-19T00:26:35.767Z,99888.59
2023-02-19T00:31:40.283Z,99886.09
2023-02-19T00:36:42.150Z,99887.69
2023-02-19T00:41:44.118Z,99881.97
2023-02-19T00:46:46.670Z,99890.00
2023-02-19T00:51:48.148Z,99876.94
2023-02-19T00:56:49.837Z,99873.63
2023-02-19T01:01:51.285Z,99863.19
2023-02-19T01:06:52.722Z,99868.78
2023-02-19T01:11:54.151Z,99857.16
2023-02-19T01:16:55.541Z,99840.22
2023-02-19T01:21:56.956Z,99839.16
2023-02-19T01:26:58.481Z,99829.56
2023-02-19T01:31:59.996Z,99820.19
2023-02-19T01:37:01.981Z,99804.91
2023-02-19T01:42:04.034Z,99800.34
2023-02-19T01:47:05.423Z,99791.16
2023-02-19T01:52:13.712Z,99787.84
2023-02-19T01:57:22.655Z,99778.00
2023-02-19T02:02:28.310Z,99783.63
2023-02-19T02:07:48.374Z,99783.38
2023-02-19T02:12:50.943Z,99774.78
2023-02-19T02:18:11.934Z,99764.69
2023-02-19T02:23:51.628Z,99757.78
2023-02-19T02:29:19.978Z,99745.16
2023-02-19T02:34:25.106Z,99763.66
2023-02-19T02:39:27.123Z,99738.59
2023-02-19T02:44:34.762Z,99742.81
2023-02-19T02:49:56.083Z,99736.53
2023-02-19T02:55:03.269Z,99736.44
2023-02-19T03:00:04.927Z,99722.19
2023-02-19T03:05:27.012Z,99709.88
2023-02-19T03:10:33.311Z,99707.22
2023-02-19T03:15:56.219Z,99708.09
2023-02-19T03:20:58.336Z,99698.78
2023-02-19T03:26:05.319Z,99693.25
2023-02-19T03:31:06.711Z,99685.28
2023-02-19T03:36:08.222Z,99684.53
2023-02-19T03:41:22.196Z,99675.09
2023-02-19T03:46:36.122Z,99680.22
2023-02-19T03:51:40.239Z,99661.88
2023-02-19T03:57:02.163Z,99659.63
2023-02-19T04:02:09.744Z,99645.72
2023-02-19T04:07:11.133Z,99646.03
2023-02-19T04:12:12.612Z,99641.13
2023-02-19T04:17:20.124Z,99640.91
2023-02-19T04:22:21.984Z,99633.94
2023-02-19T04:27:23.380Z,99636.69
2023-02-19T04:32:24.756Z,99628.81
2023-02-19T04:37:26.148Z,99624.25
2023-02-19T04:42:27.605Z,99620.44
2023-02-19T04:47:29.013Z,99611.34
2023-02-19T04:52:30.456Z,99594.91
2023-02-19T04:57:31.838Z,99590.56
2023-02-19T05:02:33.210Z,99607.28
2023-02-19T05:07:34.595Z,99612.47
2023-02-19T05:12:35.964Z,99614.66
2023-02-19T05:17:37.716Z,99625.53
2023-02-19T05:22:39.087Z,99655.56
2023-02-19T05:27:40.484Z,99625.06
2023-02-19T05:32:41.855Z,99614.72
2023-02-19T05:37:43.247Z,99621.50
2023-02-19T05:42:44.611Z,99628.31
2023-02-19T05:47:46.011Z,99639.50
2023-02-19T05:52:47.384Z,99636.50
2023-02-19T05:57:48.845Z,99633.53
2023-02-19T06:02:50.258Z,99642.03
2023-02-19T06:07:51.690Z,99658.94
2023-02-19T06:12:53.490Z,99660.53
2023-02-19T06:17:54.891Z,99676.31
2023-02-19T06:22:57.736Z,99674.19
2023-02-19T06:27:59.142Z,99683.03
2023-02-19T06:33:00.517Z,99680.78
2023-02-19T06:38:03.197Z,99688.19
2023-02-19T06:43:04.564Z,99692.72
2023-02-19T06:48:06.027Z,99697.13
2023-02-19T06:53:08.887Z,99712.50
2023-02-19T06:58:10.275Z,99701.91
2023-02-19T07:03:11.660Z,99711.16
2023-02-19T07:08:13.114Z,99721.19
2023-02-19T07:13:14.478Z,99742.50
2023-02-19T07:18:15.849Z,99745.28
2023-02-19T07:23:17.219Z,99748.34
2023-02-19T07:28:18.635Z,99747.53
2023-02-19T07:33:20.003Z,99767.16
2023-02-19T07:38:22.358Z,99788.66
2023-02-19T07:43:24.503Z,99803.66
2023-02-19T07:48:25.996Z,99821.78
2023-02-19T07:53:28.001Z,99839.03
2023-02-19T07:58:29.706Z,99859.22
2023-02-19T08:03:31.111Z,99864.59
2023-02-19T08:08:32.535Z,99877.69
2023-02-19T08:13:34.185Z,99885.38
2023-02-19T08:18:35.576Z,99879.16
2023-02-19T08:23:36.948Z,99902.09
2023-02-19T08:28:38.345Z,99922.53
2023-02-19T08:33:39.875Z,99954.19
2023-02-19T08:38:41.259Z,99971.38
2023-02-19T08:43:42.706Z,99973.13
2023-02-19T08:48:44.197Z,99999.38
2023-02-19T08:53:45.570Z,100015.22
2023-02-19T08:58:47.450Z,100038.25
2023-02-19T09:03:48.911Z,100048.38
2023-02-19T09:08:50.304Z,100080.78
2023-02-19T09:13:51.768Z,100091.72
2023-02-19T09:18:53.140Z,100094.09
2023-02-19T09:23:54.506Z,100115.00
2023-02-19T09:28:55.968Z,100139.47
2023-02-19T09:33:57.366Z,100157.28
2023-02-19T09:39:00.436Z,100160.34
2023-02-19T09:44:02.707Z,100182.47
2023-02-19T09:49:11.378Z,100198.75
2023-02-19T09:54:19.886Z,100207.53
2023-02-19T09:59:24.680Z,100205.75
2023-02-19T10:04:26.117Z,100215.63
2023-02-19T10:09:29.542Z,100223.19
2023-02-19T10:14:39.929Z,100240.31
2023-02-19T10:19:41.309Z,100245.06
2023-02-19T10:24:42.774Z,100259.69
2023-02-19T10:29:44.618Z,100259.22
2023-02-19T10:34:46.050Z,100268.13
2023-02-19T10:39:47.922Z,100278.69
2023-02-19T10:45:01.766Z,100285.34
2023-02-19T10:50:04.688Z,100295.81
2023-02-19T10:55:29.435Z,100297.81
2023-02-19T11:00:30.906Z,100306.16
2023-02-19T11:05:32.289Z,100310.78
2023-02-19T11:10:38.568Z,100315.16
2023-02-19T11:15:39.942Z,100327.88
2023-02-19T11:21:06.212Z,100340.50
2023-02-19T11:26:20.996Z,100347.28
2023-02-19T11:31:27.744Z,100343.59
2023-02-19T11:36:31.149Z,100349.88
2023-02-19T11:41:45.033Z,100361.78
2023-02-19T11:47:16.435Z,100351.66
2023-02-19T11:52:31.325Z,100378.03
2023-02-19T11:57:52.372Z,100370.66
2023-02-19T12:03:14.993Z,100378.38
2023-02-19T12:08:50.146Z,100386.72
2023-02-19T12:14:16.168Z,100408.47
2023-02-19T12:19:48.478Z,100408.09
2023-02-19T12:24:59.787Z,100417.38
2023-02-19T12:30:10.046Z,100412.28
2023-02-19T12:35:35.530Z,100411.78
2023-02-19T12:40:50.006Z,100398.25
2023-02-19T12:45:55.417Z,100408.09
2023-02-19T12:50:58.931Z,100396.94
2023-02-19T12:56:00.730Z,100399.19
2023-02-19T13:01:02.141Z,100407.16
2023-02-19T13:06:21.593Z,100413.91
2023-02-19T13:11:35.726Z,100410.81
2023-02-19T13:16:38.150Z,100431.41
2023-02-19T13:21:58.104Z,100429.47
2023-02-19T13:27:22.630Z,100435.31
2023-02-19T13:32:52.532Z,100426.53
2023-02-19T13:37:54.415Z,100441.72
2023-02-19T13:42:59.830Z,100436.88
2023-02-19T13:48:12.781Z,100446.25
2023-02-19T13:53:45.004Z,100453.63
2023-02-19T13:59:18.918Z,100454.69
2023-02-19T14:04:24.476Z,100459.78
2023-02-19T14:09:39.759Z,100469.66
2023-02-19T14:14:42.388Z,100455.50
2023-02-19T14:19:50.736Z,100472.53
2023-02-19T14:24:53.202Z,100468.13
2023-02-19T14:29:54.592Z,100471.78
2023-02-19T14:34:57.970Z,100474.28
2023-02-19T14:39:59.374Z,100480.94
2023-02-19T14:45:02.212Z,100485.94
2023-02-19T14:50:06.459Z,100489.78
2023-02-19T14:55:24.997Z,100492.97
2023-02-19T15:00:31.696Z,100502.69
2023-02-19T15:05:34.784Z,100511.84
2023-02-19T15:10:36.181Z,100519.59
2023-02-19T15:15:40.592Z,100520.66
2023-02-19T15:20:41.988Z,100517.31
2023-02-19T15:25:43.379Z,100525.75
2023-02-19T15:30:44.756Z,100524.69
2023-02-19T15:35:53.708Z,100526.75
2023-02-19T15:40:57.680Z,100529.69
2023-02-19T15:46:03.827Z,100542.75
2023-02-19T15:51:09.167Z,100545.97
2023-02-19T15:56:15.003Z,100555.22
2023-02-19T16:01:28.573Z,100545.25
2023-02-19T16:06:30.459Z,100548.22
2023-02-19T16:11:39.695Z,100544.91
2023-02-19T16:16:41.608Z,100555.00
2023-02-19T16:21:43.256Z,100540.72
2023-02-19T16:26:44.846Z,100551.56
2023-02-19T16:31:50.771Z,100543.34
2023-02-19T16:36:52.192Z,100552.25
2023-02-19T16:41:59.506Z,100583.38
2023-02-19T16:47:07.004Z,100604.41
2023-02-19T16:52:12.035Z,100606.84
2023-02-19T16:57:13.407Z,100620.50
2023-02-19T17:02:16.947Z,100624.50
2023-02-19T17:07:18.643Z,100641.63
2023-02-19T17:12:20.149Z,100655.28
2023-02-19T17:17:21.538Z,100667.44
2023-02-19T17:22:22.924Z,100661.72
2023-02-19T17:27:24.313Z,100664.09
2023-02-19T17:32:25.778Z,100681.19
2023-02-19T17:37:27.247Z,100681.19
2023-02-19T17:42:28.623Z,100692.25
2023-02-19T17:47:30.014Z,100693.69
2023-02-19T17:52:31.387Z,100702.34
2023-02-19T17:57:33.796Z,100705.53
2023-02-19T18:02:35.879Z,100713.28
2023-02-19T18:07:38.321Z,100705.25
2023-02-19T18:12:40.007Z,100703.59
2023-02-19T18:17:41.378Z,100721.28
2023-02-19T18:22:42.858Z,100727.19
2023-02-19T18:27:44.247Z,100726.59
2023-02-19T18:32:47.941Z,100733.84
2023-02-19T18:37:53.080Z,100741.84
2023-02-19T18:42:54.456Z,100737.69
2023-02-19T18:47:55.843Z,100739.63
2023-02-19T18:52:57.215Z,100741.06
2023-02-19T18:57:58.578Z,100743.75
2023-02-19T19:03:00.057Z,100746.47
2023-02-19T19:08:01.733Z,100744.00
2023-02-19T19:13:03.150Z,100742.16
2023-02-19T19:18:04.829Z,100750.97
2023-02-19T19:23:06.266Z,100756.56
2023-02-19T19:28:07.640Z,100758.25
2023-02-19T19:33:09.169Z,100753.25
2023-02-19T19:38:10.559Z,100756.66
2023-02-19T19:43:12.453Z,100754.97
2023-02-19T19:48:13.920Z,100757.41
2023-02-19T19:53:15.299Z,100767.75
2023-02-19T19:58:20.698Z,100758.91
2023-02-19T20:03:22.194Z,100761.28
2023-02-19T20:08:23.619Z,100766.06
2023-02-19T20:13:26.340Z,100757.41
2023-02-19T20:18:28.143Z,100753.63
2023-02-19T20:23:29.847Z,100756.19
2023-02-19T20:28:31.767Z,100754.53
2023-02-19T20:33:33.254Z,100751.34
2023-02-19T20:38:34.635Z,100738.88
2023-02-19T20:43:36.254Z,100746.28
2023-02-19T20:48:37.660Z,100758.56
2023-02-19T20:53:40.575Z,100757.72
2023-02-19T20:58:42.957Z,100772.13
2023-02-19T21:03:44.373Z,100775.25
2023-02-19T21:08:45.751Z,100789.16
2023-02-19T21:13:47.607Z,100799.72
2023-02-19T21:18:49.088Z,100799.91
2023-02-19T21:23:51.619Z,100802.84
2023-02-19T21:28:53.178Z,100806.16
2023-02-19T21:33:54.552Z,100807.66
2023-02-19T21:38:55.957Z,100821.78
2023-02-19T21:43:57.392Z,100823.72
2023-02-19T21:48:58.930Z,100816.25
2023-02-19T21:54:00.303Z,100821.97
2023-02-19T21:59:01.742Z,100813.38
2023-02-19T22:04:03.155Z,100815.06
2023-02-19T22:09:04.543Z,100811.47
2023-02-19T22:14:05.932Z,100810.59
2023-02-19T22:19:07.303Z,100807.66
2023-02-19T22:24:14.051Z,100793.41
2023-02-19T22:29:15.442Z,100777.44
2023-02-19T22:34:16.926Z,100782.84
2023-02-19T22:39:20.446Z,100778.84
2023-02-19T22:44:22.004Z,100778.88
2023-02-19T22:49:23.519Z,100775.31
2023-02-19T22:54:26.899Z,100782.47
2023-02-19T22:59:28.410Z,100793.34
2023-02-19T23:04:29.885Z,100771.47
2023-02-19T23:09:31.278Z,100763.47
2023-02-19T23:14:32.680Z,100755.59
2023-02-19T23:19:34.054Z,100746.72
2023-02-19T23:24:35.684Z,100743.53
2023-02-19T23:29:37.118Z,100723.69
2023-02-19T23:34:38.490Z,100725.22
2023-02-19T23:39:39.899Z,100741.25
2023-02-19T23:44:41.267Z,100744.78
2023-02-19T23:49:42.638Z,100733.78
2023-02-19T23:54:44.030Z,100721.19
2023-02-19T23:59:47.103Z,100700.84
